sensor_id;sensor_type;location;lat;lon;timestamp;P1;durP1;ratioP1;P2;durP2;ratioP2
20114;SDS011;10218;42.874;25.320;2024-03-17T00:00:20;48.67;;;31.30;;
20114;SDS011;10218;42.874;25.320;2024-03-17T00:02:47;51.53;;;29.20;;
20114;SDS011;10218;42.874;25.320;2024-03-17T00:05:14;58.33;;;32.50;;
20114;SDS011;10218;42.874;25.320;2024-03-17T00:07:40;80.23;;;39.60;;
20114;SDS011;10218;42.874;25.320;2024-03-17T00:10:06;68.03;;;35.40;;
20114;SDS011;10218;42.874;25.320;2024-03-17T00:12:33;74.33;;;36.80;;
20114;SDS011;10218;42.874;25.320;2024-03-17T00:14:59;69.60;;;33.30;;
20114;SDS011;10218;42.874;25.320;2024-03-17T00:17:26;59.10;;;30.73;;
20114;SDS011;10218;42.874;25.320;2024-03-17T00:19:52;55.40;;;31.67;;
20114;SDS011;10218;42.874;25.320;2024-03-17T00:22:18;48.37;;;28.03;;
20114;SDS011;10218;42.874;25.320;2024-03-17T00:24:45;42.33;;;25.90;;
20114;SDS011;10218;42.874;25.320;2024-03-17T00:27:11;41.67;;;26.07;;
20114;SDS011;10218;42.874;25.320;2024-03-17T00:29:39;37.40;;;24.17;;
20114;SDS011;10218;42.874;25.320;2024-03-17T00:32:06;42.40;;;24.37;;
20114;SDS011;10218;42.874;25.320;2024-03-17T00:34:32;35.87;;;22.53;;
20114;SDS011;10218;42.874;25.320;2024-03-17T00:36:58;36.30;;;22.10;;
20114;SDS011;10218;42.874;25.320;2024-03-17T00:39:28;28.37;;;19.53;;
20114;SDS011;10218;42.874;25.320;2024-03-17T00:41:54;31.17;;;18.80;;
20114;SDS011;10218;42.874;25.320;2024-03-17T00:44:20;29.00;;;19.07;;
20114;SDS011;10218;42.874;25.320;2024-03-17T00:46:47;39.33;;;22.27;;
20114;SDS011;10218;42.874;25.320;2024-03-17T00:49:13;64.27;;;30.30;;
20114;SDS011;10218;42.874;25.320;2024-03-17T00:51:39;57.13;;;29.93;;
20114;SDS011;10218;42.874;25.320;2024-03-17T00:54:06;44.40;;;24.33;;
20114;SDS011;10218;42.874;25.320;2024-03-17T00:56:31;34.73;;;23.10;;
20114;SDS011;10218;42.874;25.320;2024-03-17T00:58:57;38.60;;;23.77;;
20114;SDS011;10218;42.874;25.320;2024-03-17T01:01:24;38.97;;;23.33;;
20114;SDS011;10218;42.874;25.320;2024-03-17T01:03:50;37.33;;;24.07;;
20114;SDS011;10218;42.874;25.320;2024-03-17T01:06:16;41.90;;;23.97;;
20114;SDS011;10218;42.874;25.320;2024-03-17T01:08:42;39.57;;;23.33;;
20114;SDS011;10218;42.874;25.320;2024-03-17T01:11:13;37.90;;;23.40;;
20114;SDS011;10218;42.874;25.320;2024-03-17T01:13:47;37.40;;;23.63;;
20114;SDS011;10218;42.874;25.320;2024-03-17T01:16:13;37.73;;;24.80;;
20114;SDS011;10218;42.874;25.320;2024-03-17T01:18:39;39.30;;;24.33;;
20114;SDS011;10218;42.874;25.320;2024-03-17T01:21:06;36.63;;;22.27;;
20114;SDS011;10218;42.874;25.320;2024-03-17T01:23:32;35.70;;;23.73;;
20114;SDS011;10218;42.874;25.320;2024-03-17T01:25:58;34.40;;;23.70;;
20114;SDS011;10218;42.874;25.320;2024-03-17T01:28:25;35.83;;;24.00;;
20114;SDS011;10218;42.874;25.320;2024-03-17T01:30:52;34.13;;;22.13;;
20114;SDS011;10218;42.874;25.320;2024-03-17T01:33:18;32.97;;;21.97;;
20114;SDS011;10218;42.874;25.320;2024-03-17T01:35:44;37.93;;;24.63;;
20114;SDS011;10218;42.874;25.320;2024-03-17T01:38:10;37.37;;;26.40;;
20114;SDS011;10218;42.874;25.320;2024-03-17T01:40:36;33.77;;;23.23;;
20114;SDS011;10218;42.874;25.320;2024-03-17T01:43:03;33.80;;;22.27;;
20114;SDS011;10218;42.874;25.320;2024-03-17T01:45:30;35.97;;;22.53;;
20114;SDS011;10218;42.874;25.320;2024-03-17T01:48:00;37.80;;;23.07;;
20114;SDS011;10218;42.874;25.320;2024-03-17T01:50:31;32.90;;;20.03;;
20114;SDS011;10218;42.874;25.320;2024-03-17T01:52:59;29.43;;;19.90;;
20114;SDS011;10218;42.874;25.320;2024-03-17T01:55:31;29.40;;;20.33;;
20114;SDS011;10218;42.874;25.320;2024-03-17T01:57:59;34.10;;;21.67;;
20114;SDS011;10218;42.874;25.320;2024-03-17T02:00:24;32.13;;;20.20;;
20114;SDS011;10218;42.874;25.320;2024-03-17T02:02:52;32.67;;;19.93;;
20114;SDS011;10218;42.874;25.320;2024-03-17T02:05:18;32.80;;;20.17;;
20114;SDS011;10218;42.874;25.320;2024-03-17T02:07:44;28.03;;;19.33;;
20114;SDS011;10218;42.874;25.320;2024-03-17T02:10:11;29.33;;;20.20;;
20114;SDS011;10218;42.874;25.320;2024-03-17T02:12:37;26.10;;;17.80;;
20114;SDS011;10218;42.874;25.320;2024-03-17T02:15:04;29.33;;;18.57;;
20114;SDS011;10218;42.874;25.320;2024-03-17T02:17:31;29.00;;;18.77;;
20114;SDS011;10218;42.874;25.320;2024-03-17T02:19:58;31.73;;;18.67;;
20114;SDS011;10218;42.874;25.320;2024-03-17T02:22:24;28.07;;;17.77;;
20114;SDS011;10218;42.874;25.320;2024-03-17T02:24:51;29.97;;;18.43;;
20114;SDS011;10218;42.874;25.320;2024-03-17T02:27:17;28.40;;;17.63;;
20114;SDS011;10218;42.874;25.320;2024-03-17T02:29:43;26.83;;;18.03;;
20114;SDS011;10218;42.874;25.320;2024-03-17T02:32:10;28.67;;;18.33;;
20114;SDS011;10218;42.874;25.320;2024-03-17T02:34:37;29.73;;;17.43;;
20114;SDS011;10218;42.874;25.320;2024-03-17T02:37:04;26.73;;;17.53;;
20114;SDS011;10218;42.874;25.320;2024-03-17T02:39:33;28.87;;;15.97;;
20114;SDS011;10218;42.874;25.320;2024-03-17T02:42:03;32.47;;;17.60;;
20114;SDS011;10218;42.874;25.320;2024-03-17T02:44:31;29.37;;;17.30;;
20114;SDS011;10218;42.874;25.320;2024-03-17T02:46:58;26.10;;;16.57;;
20114;SDS011;10218;42.874;25.320;2024-03-17T02:49:25;24.40;;;15.80;;
20114;SDS011;10218;42.874;25.320;2024-03-17T02:51:55;27.77;;;17.27;;
20114;SDS011;10218;42.874;25.320;2024-03-17T02:54:22;28.97;;;17.33;;
20114;SDS011;10218;42.874;25.320;2024-03-17T02:56:48;35.13;;;17.13;;
20114;SDS011;10218;42.874;25.320;2024-03-17T02:59:14;25.87;;;16.07;;
20114;SDS011;10218;42.874;25.320;2024-03-17T03:01:41;23.80;;;16.10;;
20114;SDS011;10218;42.874;25.320;2024-03-17T03:04:07;27.47;;;17.03;;
20114;SDS011;10218;42.874;25.320;2024-03-17T03:06:33;30.53;;;16.10;;
20114;SDS011;10218;42.874;25.320;2024-03-17T03:09:00;26.30;;;16.23;;
20114;SDS011;10218;42.874;25.320;2024-03-17T03:11:26;25.80;;;16.37;;
20114;SDS011;10218;42.874;25.320;2024-03-17T03:13:52;27.57;;;16.57;;
20114;SDS011;10218;42.874;25.320;2024-03-17T03:16:18;25.73;;;15.63;;
20114;SDS011;10218;42.874;25.320;2024-03-17T03:18:44;26.00;;;15.60;;
20114;SDS011;10218;42.874;25.320;2024-03-17T03:21:11;26.17;;;16.80;;
20114;SDS011;10218;42.874;25.320;2024-03-17T03:23:38;23.33;;;15.10;;
20114;SDS011;10218;42.874;25.320;2024-03-17T03:26:04;25.73;;;15.67;;
20114;SDS011;10218;42.874;25.320;2024-03-17T03:28:31;25.50;;;16.07;;
20114;SDS011;10218;42.874;25.320;2024-03-17T03:30:59;26.63;;;15.60;;
20114;SDS011;10218;42.874;25.320;2024-03-17T03:33:25;23.17;;;15.40;;
20114;SDS011;10218;42.874;25.320;2024-03-17T03:35:51;22.17;;;15.20;;
20114;SDS011;10218;42.874;25.320;2024-03-17T03:38:18;21.77;;;15.23;;
20114;SDS011;10218;42.874;25.320;2024-03-17T03:40:45;23.00;;;15.03;;
20114;SDS011;10218;42.874;25.320;2024-03-17T03:43:13;22.17;;;15.70;;
20114;SDS011;10218;42.874;25.320;2024-03-17T03:45:40;21.17;;;14.80;;
20114;SDS011;10218;42.874;25.320;2024-03-17T03:48:06;26.10;;;15.37;;
20114;SDS011;10218;42.874;25.320;2024-03-17T03:50:39;22.33;;;15.20;;
20114;SDS011;10218;42.874;25.320;2024-03-17T03:53:06;23.60;;;15.30;;
20114;SDS011;10218;42.874;25.320;2024-03-17T03:55:32;20.43;;;14.03;;
20114;SDS011;10218;42.874;25.320;2024-03-17T03:57:58;22.90;;;14.33;;
20114;SDS011;10218;42.874;25.320;2024-03-17T04:00:24;23.20;;;15.17;;
20114;SDS011;10218;42.874;25.320;2024-03-17T04:02:55;25.63;;;15.40;;
20114;SDS011;10218;42.874;25.320;2024-03-17T04:05:21;22.20;;;14.77;;
20114;SDS011;10218;42.874;25.320;2024-03-17T04:07:48;23.10;;;15.50;;
20114;SDS011;10218;42.874;25.320;2024-03-17T04:10:15;21.83;;;14.43;;
20114;SDS011;10218;42.874;25.320;2024-03-17T04:12:41;22.37;;;13.90;;
20114;SDS011;10218;42.874;25.320;2024-03-17T04:15:08;22.47;;;14.30;;
20114;SDS011;10218;42.874;25.320;2024-03-17T04:17:36;22.97;;;15.10;;
20114;SDS011;10218;42.874;25.320;2024-03-17T04:20:03;24.50;;;15.20;;
20114;SDS011;10218;42.874;25.320;2024-03-17T04:22:34;24.33;;;14.97;;
20114;SDS011;10218;42.874;25.320;2024-03-17T04:25:01;22.17;;;14.30;;
20114;SDS011;10218;42.874;25.320;2024-03-17T04:27:29;24.87;;;16.10;;
20114;SDS011;10218;42.874;25.320;2024-03-17T04:29:56;21.77;;;14.23;;
20114;SDS011;10218;42.874;25.320;2024-03-17T04:32:25;22.93;;;14.57;;
20114;SDS011;10218;42.874;25.320;2024-03-17T04:34:56;22.83;;;14.10;;
20114;SDS011;10218;42.874;25.320;2024-03-17T04:37:22;22.33;;;14.30;;
20114;SDS011;10218;42.874;25.320;2024-03-17T04:39:48;19.33;;;13.07;;
20114;SDS011;10218;42.874;25.320;2024-03-17T04:42:15;22.57;;;13.43;;
20114;SDS011;10218;42.874;25.320;2024-03-17T04:44:43;19.07;;;12.60;;
20114;SDS011;10218;42.874;25.320;2024-03-17T04:47:11;17.60;;;12.33;;
20114;SDS011;10218;42.874;25.320;2024-03-17T04:49:38;20.63;;;14.37;;
20114;SDS011;10218;42.874;25.320;2024-03-17T04:52:09;26.87;;;17.77;;
20114;SDS011;10218;42.874;25.320;2024-03-17T04:54:36;29.40;;;17.50;;
20114;SDS011;10218;42.874;25.320;2024-03-17T04:57:08;26.10;;;17.33;;
20114;SDS011;10218;42.874;25.320;2024-03-17T04:59:37;28.13;;;17.60;;
20114;SDS011;10218;42.874;25.320;2024-03-17T05:02:04;26.23;;;17.10;;
20114;SDS011;10218;42.874;25.320;2024-03-17T05:04:30;24.20;;;16.40;;
20114;SDS011;10218;42.874;25.320;2024-03-17T05:06:56;26.67;;;16.30;;
20114;SDS011;10218;42.874;25.320;2024-03-17T05:09:24;25.97;;;15.90;;
20114;SDS011;10218;42.874;25.320;2024-03-17T05:11:50;28.80;;;15.40;;
20114;SDS011;10218;42.874;25.320;2024-03-17T05:14:19;22.33;;;14.83;;
20114;SDS011;10218;42.874;25.320;2024-03-17T05:16:49;22.43;;;15.37;;
20114;SDS011;10218;42.874;25.320;2024-03-17T05:19:16;19.97;;;13.33;;
20114;SDS011;10218;42.874;25.320;2024-03-17T05:21:43;19.87;;;13.30;;
20114;SDS011;10218;42.874;25.320;2024-03-17T05:24:10;22.97;;;14.93;;
20114;SDS011;10218;42.874;25.320;2024-03-17T05:26:38;21.93;;;14.83;;
20114;SDS011;10218;42.874;25.320;2024-03-17T05:29:04;20.00;;;13.73;;
20114;SDS011;10218;42.874;25.320;2024-03-17T05:31:31;18.13;;;13.13;;
20114;SDS011;10218;42.874;25.320;2024-03-17T05:33:57;20.73;;;12.87;;
20114;SDS011;10218;42.874;25.320;2024-03-17T05:36:23;18.13;;;12.50;;
20114;SDS011;10218;42.874;25.320;2024-03-17T05:38:49;19.23;;;12.90;;
20114;SDS011;10218;42.874;25.320;2024-03-17T05:41:15;18.37;;;13.27;;
20114;SDS011;10218;42.874;25.320;2024-03-17T05:43:41;17.10;;;12.57;;
20114;SDS011;10218;42.874;25.320;2024-03-17T05:46:09;18.93;;;13.37;;
20114;SDS011;10218;42.874;25.320;2024-03-17T05:48:37;17.90;;;12.50;;
20114;SDS011;10218;42.874;25.320;2024-03-17T05:51:04;15.63;;;11.43;;
20114;SDS011;10218;42.874;25.320;2024-03-17T05:53:37;18.03;;;12.53;;
20114;SDS011;10218;42.874;25.320;2024-03-17T05:56:05;16.00;;;11.13;;
20114;SDS011;10218;42.874;25.320;2024-03-17T05:58:37;19.73;;;11.10;;
20114;SDS011;10218;42.874;25.320;2024-03-17T06:01:06;16.43;;;11.23;;
20114;SDS011;10218;42.874;25.320;2024-03-17T06:03:36;18.67;;;12.70;;
20114;SDS011;10218;42.874;25.320;2024-03-17T06:06:03;17.07;;;12.63;;
20114;SDS011;10218;42.874;25.320;2024-03-17T06:08:29;18.97;;;14.10;;
20114;SDS011;10218;42.874;25.320;2024-03-17T06:10:56;18.83;;;14.13;;
20114;SDS011;10218;42.874;25.320;2024-03-17T06:13:28;19.53;;;12.57;;
20114;SDS011;10218;42.874;25.320;2024-03-17T06:15:54;16.63;;;12.30;;
20114;SDS011;10218;42.874;25.320;2024-03-17T06:18:23;15.93;;;12.57;;
20114;SDS011;10218;42.874;25.320;2024-03-17T06:20:49;20.37;;;12.27;;
20114;SDS011;10218;42.874;25.320;2024-03-17T06:23:15;19.13;;;12.13;;
20114;SDS011;10218;42.874;25.320;2024-03-17T06:25:43;18.70;;;12.57;;
20114;SDS011;10218;42.874;25.320;2024-03-17T06:28:09;18.57;;;12.90;;
20114;SDS011;10218;42.874;25.320;2024-03-17T06:30:42;18.27;;;13.30;;
20114;SDS011;10218;42.874;25.320;2024-03-17T06:33:11;17.80;;;13.40;;
20114;SDS011;10218;42.874;25.320;2024-03-17T06:35:38;18.00;;;13.43;;
20114;SDS011;10218;42.874;25.320;2024-03-17T06:38:04;25.27;;;14.47;;
20114;SDS011;10218;42.874;25.320;2024-03-17T06:40:31;20.80;;;14.23;;
20114;SDS011;10218;42.874;25.320;2024-03-17T06:42:57;20.20;;;13.53;;
20114;SDS011;10218;42.874;25.320;2024-03-17T06:45:23;18.00;;;12.63;;
20114;SDS011;10218;42.874;25.320;2024-03-17T06:47:50;20.07;;;13.60;;
20114;SDS011;10218;42.874;25.320;2024-03-17T06:50:16;22.07;;;14.00;;
20114;SDS011;10218;42.874;25.320;2024-03-17T06:52:42;17.03;;;12.97;;
20114;SDS011;10218;42.874;25.320;2024-03-17T06:55:08;20.50;;;12.97;;
20114;SDS011;10218;42.874;25.320;2024-03-17T06:57:34;20.20;;;13.63;;
20114;SDS011;10218;42.874;25.320;2024-03-17T07:00:02;20.53;;;13.83;;
20114;SDS011;10218;42.874;25.320;2024-03-17T07:02:32;21.27;;;13.57;;
20114;SDS011;10218;42.874;25.320;2024-03-17T07:04:58;21.93;;;13.93;;
20114;SDS011;10218;42.874;25.320;2024-03-17T07:07:27;16.80;;;11.50;;
20114;SDS011;10218;42.874;25.320;2024-03-17T07:09:54;16.50;;;12.50;;
20114;SDS011;10218;42.874;25.320;2024-03-17T07:12:20;17.93;;;12.90;;
20114;SDS011;10218;42.874;25.320;2024-03-17T07:14:46;20.00;;;11.87;;
20114;SDS011;10218;42.874;25.320;2024-03-17T07:17:16;15.50;;;11.80;;
20114;SDS011;10218;42.874;25.320;2024-03-17T07:19:42;18.57;;;12.70;;
20114;SDS011;10218;42.874;25.320;2024-03-17T07:22:08;19.20;;;12.60;;
20114;SDS011;10218;42.874;25.320;2024-03-17T07:24:34;19.77;;;12.47;;
20114;SDS011;10218;42.874;25.320;2024-03-17T07:27:00;18.17;;;12.40;;
20114;SDS011;10218;42.874;25.320;2024-03-17T07:29:26;24.43;;;12.77;;
20114;SDS011;10218;42.874;25.320;2024-03-17T07:31:52;19.17;;;13.50;;
20114;SDS011;10218;42.874;25.320;2024-03-17T07:34:18;18.90;;;13.07;;
20114;SDS011;10218;42.874;25.320;2024-03-17T07:36:45;15.90;;;11.20;;
20114;SDS011;10218;42.874;25.320;2024-03-17T07:39:11;15.33;;;11.73;;
20114;SDS011;10218;42.874;25.320;2024-03-17T07:41:38;16.83;;;11.67;;
20114;SDS011;10218;42.874;25.320;2024-03-17T07:44:04;15.10;;;11.20;;
20114;SDS011;10218;42.874;25.320;2024-03-17T07:46:30;18.90;;;12.67;;
20114;SDS011;10218;42.874;25.320;2024-03-17T07:48:56;17.33;;;11.57;;
20114;SDS011;10218;42.874;25.320;2024-03-17T07:51:22;16.37;;;11.57;;
20114;SDS011;10218;42.874;25.320;2024-03-17T07:53:49;16.37;;;11.47;;
20114;SDS011;10218;42.874;25.320;2024-03-17T07:56:15;17.90;;;12.03;;
20114;SDS011;10218;42.874;25.320;2024-03-17T07:58:42;16.90;;;11.97;;
20114;SDS011;10218;42.874;25.320;2024-03-17T08:01:13;16.53;;;11.93;;
20114;SDS011;10218;42.874;25.320;2024-03-17T08:03:41;18.00;;;12.27;;
20114;SDS011;10218;42.874;25.320;2024-03-17T08:06:10;16.27;;;12.00;;
20114;SDS011;10218;42.874;25.320;2024-03-17T08:08:36;17.13;;;12.13;;
20114;SDS011;10218;42.874;25.320;2024-03-17T08:11:03;16.50;;;12.33;;
20114;SDS011;10218;42.874;25.320;2024-03-17T08:13:30;16.70;;;12.20;;
20114;SDS011;10218;42.874;25.320;2024-03-17T08:16:00;18.20;;;12.23;;
20114;SDS011;10218;42.874;25.320;2024-03-17T08:18:28;15.53;;;11.33;;
20114;SDS011;10218;42.874;25.320;2024-03-17T08:20:55;16.53;;;11.87;;
20114;SDS011;10218;42.874;25.320;2024-03-17T08:23:23;16.73;;;11.57;;
20114;SDS011;10218;42.874;25.320;2024-03-17T08:25:53;15.17;;;11.27;;
20114;SDS011;10218;42.874;25.320;2024-03-17T08:28:20;15.93;;;11.73;;
20114;SDS011;10218;42.874;25.320;2024-03-17T08:31:00;16.00;;;11.17;;
20114;SDS011;10218;42.874;25.320;2024-03-17T08:33:27;16.40;;;11.60;;
20114;SDS011;10218;42.874;25.320;2024-03-17T08:35:55;14.53;;;10.93;;
20114;SDS011;10218;42.874;25.320;2024-03-17T08:38:22;15.73;;;11.83;;
20114;SDS011;10218;42.874;25.320;2024-03-17T08:40:52;15.33;;;11.20;;
20114;SDS011;10218;42.874;25.320;2024-03-17T08:43:20;15.70;;;11.13;;
20114;SDS011;10218;42.874;25.320;2024-03-17T08:48:26;13.77;;;10.20;;
20114;SDS011;10218;42.874;25.320;2024-03-17T08:50:54;15.13;;;10.43;;
20114;SDS011;10218;42.874;25.320;2024-03-17T08:53:21;14.63;;;10.33;;
20114;SDS011;10218;42.874;25.320;2024-03-17T08:55:47;13.80;;;9.80;;
20114;SDS011;10218;42.874;25.320;2024-03-17T08:58:14;12.07;;;9.70;;
20114;SDS011;10218;42.874;25.320;2024-03-17T09:00:40;14.80;;;9.43;;
20114;SDS011;10218;42.874;25.320;2024-03-17T09:03:07;13.17;;;9.73;;
20114;SDS011;10218;42.874;25.320;2024-03-17T09:05:36;13.43;;;10.27;;
20114;SDS011;10218;42.874;25.320;2024-03-17T09:08:03;13.17;;;9.90;;
20114;SDS011;10218;42.874;25.320;2024-03-17T09:10:29;13.10;;;10.43;;
20114;SDS011;10218;42.874;25.320;2024-03-17T09:12:55;12.77;;;9.53;;
20114;SDS011;10218;42.874;25.320;2024-03-17T09:15:22;12.33;;;9.80;;
20114;SDS011;10218;42.874;25.320;2024-03-17T09:17:48;12.80;;;9.90;;
20114;SDS011;10218;42.874;25.320;2024-03-17T09:20:14;12.00;;;9.23;;
20114;SDS011;10218;42.874;25.320;2024-03-17T09:22:43;12.30;;;9.43;;
20114;SDS011;10218;42.874;25.320;2024-03-17T09:25:09;10.90;;;8.90;;
20114;SDS011;10218;42.874;25.320;2024-03-17T09:27:35;12.67;;;9.23;;
20114;SDS011;10218;42.874;25.320;2024-03-17T09:30:04;13.80;;;8.37;;
20114;SDS011;10218;42.874;25.320;2024-03-17T09:32:37;12.20;;;8.67;;
20114;SDS011;10218;42.874;25.320;2024-03-17T09:35:04;10.40;;;8.13;;
20114;SDS011;10218;42.874;25.320;2024-03-17T09:37:31;12.80;;;9.47;;
20114;SDS011;10218;42.874;25.320;2024-03-17T09:39:57;10.40;;;8.27;;
20114;SDS011;10218;42.874;25.320;2024-03-17T09:42:26;9.60;;;7.93;;
20114;SDS011;10218;42.874;25.320;2024-03-17T09:44:55;10.27;;;8.37;;
20114;SDS011;10218;42.874;25.320;2024-03-17T09:47:24;10.17;;;8.43;;
20114;SDS011;10218;42.874;25.320;2024-03-17T09:49:52;10.50;;;8.00;;
20114;SDS011;10218;42.874;25.320;2024-03-17T09:52:22;9.07;;;7.47;;
20114;SDS011;10218;42.874;25.320;2024-03-17T09:54:54;10.60;;;7.17;;
20114;SDS011;10218;42.874;25.320;2024-03-17T09:57:25;11.03;;;7.57;;
20114;SDS011;10218;42.874;25.320;2024-03-17T09:59:51;9.23;;;7.40;;
20114;SDS011;10218;42.874;25.320;2024-03-17T10:02:19;9.40;;;7.53;;
20114;SDS011;10218;42.874;25.320;2024-03-17T10:04:45;9.93;;;6.50;;
20114;SDS011;10218;42.874;25.320;2024-03-17T10:07:11;8.37;;;6.80;;
20114;SDS011;10218;42.874;25.320;2024-03-17T10:09:37;8.50;;;6.70;;
20114;SDS011;10218;42.874;25.320;2024-03-17T10:12:05;6.90;;;5.60;;
20114;SDS011;10218;42.874;25.320;2024-03-17T10:14:32;7.97;;;6.00;;
20114;SDS011;10218;42.874;25.320;2024-03-17T10:16:58;7.70;;;5.10;;
20114;SDS011;10218;42.874;25.320;2024-03-17T10:19:25;9.87;;;5.77;;
20114;SDS011;10218;42.874;25.320;2024-03-17T10:21:59;5.40;;;4.60;;
20114;SDS011;10218;42.874;25.320;2024-03-17T10:24:27;5.63;;;3.77;;
20114;SDS011;10218;42.874;25.320;2024-03-17T10:26:57;5.67;;;4.00;;
20114;SDS011;10218;42.874;25.320;2024-03-17T10:29:29;4.80;;;4.30;;
20114;SDS011;10218;42.874;25.320;2024-03-17T10:34:23;5.53;;;4.80;;
20114;SDS011;10218;42.874;25.320;2024-03-17T10:39:50;5.70;;;5.00;;
20114;SDS011;10218;42.874;25.320;2024-03-17T10:42:22;5.80;;;5.07;;
20114;SDS011;10218;42.874;25.320;2024-03-17T10:44:54;5.97;;;4.33;;
20114;SDS011;10218;42.874;25.320;2024-03-17T10:47:24;5.13;;;4.27;;
20114;SDS011;10218;42.874;25.320;2024-03-17T10:49:52;5.73;;;3.73;;
20114;SDS011;10218;42.874;25.320;2024-03-17T10:52:20;5.63;;;3.80;;
20114;SDS011;10218;42.874;25.320;2024-03-17T10:54:52;5.87;;;3.37;;
20114;SDS011;10218;42.874;25.320;2024-03-17T10:57:32;4.10;;;3.70;;
20114;SDS011;10218;42.874;25.320;2024-03-17T11:00:11;5.33;;;3.73;;
20114;SDS011;10218;42.874;25.320;2024-03-17T11:02:43;6.10;;;3.60;;
20114;SDS011;10218;42.874;25.320;2024-03-17T11:05:14;4.10;;;3.10;;
20114;SDS011;10218;42.874;25.320;2024-03-17T11:08:00;4.17;;;3.43;;
20114;SDS011;10218;42.874;25.320;2024-03-17T11:10:29;6.03;;;4.43;;
20114;SDS011;10218;42.874;25.320;2024-03-17T11:13:00;4.53;;;3.80;;
20114;SDS011;10218;42.874;25.320;2024-03-17T11:20:39;6.57;;;3.67;;
20114;SDS011;10218;42.874;25.320;2024-03-17T11:23:06;6.93;;;4.20;;
20114;SDS011;10218;42.874;25.320;2024-03-17T11:28:00;5.47;;;4.30;;
20114;SDS011;10218;42.874;25.320;2024-03-17T11:42:07;6.50;;;3.87;;
20114;SDS011;10218;42.874;25.320;2024-03-17T11:44:42;7.60;;;3.80;;
20114;SDS011;10218;42.874;25.320;2024-03-17T11:47:09;4.17;;;3.63;;
20114;SDS011;10218;42.874;25.320;2024-03-17T11:49:35;4.97;;;3.63;;
20114;SDS011;10218;42.874;25.320;2024-03-17T11:54:44;4.97;;;4.07;;
20114;SDS011;10218;42.874;25.320;2024-03-17T11:57:20;6.37;;;3.90;;
20114;SDS011;10218;42.874;25.320;2024-03-17T11:59:51;7.57;;;4.50;;
20114;SDS011;10218;42.874;25.320;2024-03-17T12:02:29;5.57;;;4.20;;
20114;SDS011;10218;42.874;25.320;2024-03-17T12:04:57;5.50;;;4.40;;
20114;SDS011;10218;42.874;25.320;2024-03-17T12:07:25;5.10;;;3.77;;
20114;SDS011;10218;42.874;25.320;2024-03-17T12:09:53;6.40;;;3.90;;
20114;SDS011;10218;42.874;25.320;2024-03-17T12:12:21;5.47;;;4.20;;
20114;SDS011;10218;42.874;25.320;2024-03-17T12:14:50;6.63;;;4.30;;
20114;SDS011;10218;42.874;25.320;2024-03-17T12:17:20;9.13;;;7.00;;
20114;SDS011;10218;42.874;25.320;2024-03-17T12:19:48;5.03;;;4.20;;
20114;SDS011;10218;42.874;25.320;2024-03-17T12:22:18;4.83;;;3.50;;
20114;SDS011;10218;42.874;25.320;2024-03-17T12:24:53;7.63;;;6.00;;
20114;SDS011;10218;42.874;25.320;2024-03-17T12:27:25;106.40;;;79.73;;
20114;SDS011;10218;42.874;25.320;2024-03-17T12:29:52;19.10;;;14.00;;
20114;SDS011;10218;42.874;25.320;2024-03-17T12:32:20;6.10;;;4.87;;
20114;SDS011;10218;42.874;25.320;2024-03-17T12:34:57;5.90;;;4.40;;
20114;SDS011;10218;42.874;25.320;2024-03-17T12:37:24;4.93;;;3.80;;
20114;SDS011;10218;42.874;25.320;2024-03-17T12:40:01;5.77;;;3.60;;
20114;SDS011;10218;42.874;25.320;2024-03-17T12:42:28;59.17;;;43.73;;
20114;SDS011;10218;42.874;25.320;2024-03-17T12:44:56;7.50;;;4.87;;
20114;SDS011;10218;42.874;25.320;2024-03-17T12:47:24;11.33;;;8.27;;
20114;SDS011;10218;42.874;25.320;2024-03-17T12:49:52;6.93;;;3.60;;
20114;SDS011;10218;42.874;25.320;2024-03-17T12:52:23;4.40;;;3.30;;
20114;SDS011;10218;42.874;25.320;2024-03-17T12:55:02;5.83;;;4.17;;
20114;SDS011;10218;42.874;25.320;2024-03-17T12:57:49;4.83;;;3.60;;
20114;SDS011;10218;42.874;25.320;2024-03-17T13:00:34;16.77;;;11.23;;
20114;SDS011;10218;42.874;25.320;2024-03-17T13:03:01;10.57;;;7.03;;
20114;SDS011;10218;42.874;25.320;2024-03-17T13:05:34;7.20;;;5.77;;
20114;SDS011;10218;42.874;25.320;2024-03-17T13:08:01;7.00;;;5.17;;
20114;SDS011;10218;42.874;25.320;2024-03-17T13:10:27;5.30;;;3.97;;
20114;SDS011;10218;42.874;25.320;2024-03-17T13:13:07;16.10;;;11.80;;
20114;SDS011;10218;42.874;25.320;2024-03-17T13:15:34;9.93;;;7.87;;
20114;SDS011;10218;42.874;25.320;2024-03-17T13:18:02;5.77;;;3.10;;
20114;SDS011;10218;42.874;25.320;2024-03-17T13:20:31;4.93;;;3.70;;
20114;SDS011;10218;42.874;25.320;2024-03-17T13:22:58;10.40;;;8.97;;
20114;SDS011;10218;42.874;25.320;2024-03-17T13:25:30;7.33;;;5.40;;
20114;SDS011;10218;42.874;25.320;2024-03-17T13:28:03;4.93;;;3.97;;
20114;SDS011;10218;42.874;25.320;2024-03-17T13:30:32;7.00;;;4.77;;
20114;SDS011;10218;42.874;25.320;2024-03-17T13:33:02;3.63;;;3.07;;
20114;SDS011;10218;42.874;25.320;2024-03-17T13:35:34;4.73;;;3.10;;
20114;SDS011;10218;42.874;25.320;2024-03-17T13:38:07;8.20;;;5.93;;
20114;SDS011;10218;42.874;25.320;2024-03-17T13:40:35;4.37;;;3.73;;
20114;SDS011;10218;42.874;25.320;2024-03-17T13:43:03;4.33;;;3.63;;
20114;SDS011;10218;42.874;25.320;2024-03-17T13:45:31;6.13;;;5.27;;
20114;SDS011;10218;42.874;25.320;2024-03-17T13:48:05;5.10;;;3.40;;
20114;SDS011;10218;42.874;25.320;2024-03-17T13:50:31;5.57;;;3.13;;
20114;SDS011;10218;42.874;25.320;2024-03-17T13:52:57;3.33;;;2.90;;
20114;SDS011;10218;42.874;25.320;2024-03-17T13:55:24;5.33;;;3.00;;
20114;SDS011;10218;42.874;25.320;2024-03-17T13:57:54;4.80;;;4.20;;
20114;SDS011;10218;42.874;25.320;2024-03-17T14:00:22;4.20;;;3.20;;
20114;SDS011;10218;42.874;25.320;2024-03-17T14:02:50;4.80;;;3.90;;
20114;SDS011;10218;42.874;25.320;2024-03-17T14:05:18;4.97;;;3.97;;
20114;SDS011;10218;42.874;25.320;2024-03-17T14:07:45;5.37;;;4.77;;
20114;SDS011;10218;42.874;25.320;2024-03-17T14:10:12;8.00;;;4.70;;
20114;SDS011;10218;42.874;25.320;2024-03-17T14:12:40;4.17;;;2.90;;
20114;SDS011;10218;42.874;25.320;2024-03-17T14:15:06;3.83;;;3.03;;
20114;SDS011;10218;42.874;25.320;2024-03-17T14:17:37;3.83;;;3.30;;
20114;SDS011;10218;42.874;25.320;2024-03-17T14:20:03;4.30;;;3.60;;
20114;SDS011;10218;42.874;25.320;2024-03-17T14:22:31;5.13;;;3.50;;
20114;SDS011;10218;42.874;25.320;2024-03-17T14:24:58;5.13;;;3.83;;
20114;SDS011;10218;42.874;25.320;2024-03-17T14:27:23;4.70;;;3.93;;
20114;SDS011;10218;42.874;25.320;2024-03-17T14:29:53;6.27;;;3.80;;
20114;SDS011;10218;42.874;25.320;2024-03-17T14:32:19;6.43;;;4.97;;
20114;SDS011;10218;42.874;25.320;2024-03-17T14:34:46;5.43;;;4.07;;
20114;SDS011;10218;42.874;25.320;2024-03-17T14:37:12;5.83;;;4.80;;
20114;SDS011;10218;42.874;25.320;2024-03-17T14:39:40;4.33;;;3.70;;
20114;SDS011;10218;42.874;25.320;2024-03-17T14:42:06;5.07;;;3.57;;
20114;SDS011;10218;42.874;25.320;2024-03-17T14:44:34;5.23;;;4.37;;
20114;SDS011;10218;42.874;25.320;2024-03-17T14:47:01;4.77;;;4.10;;
20114;SDS011;10218;42.874;25.320;2024-03-17T14:49:32;5.00;;;4.47;;